Thunder radar more information blitzortung!


Löydät sääaseman tiedot myös:

European Weather Network

Finland Weather Exchange

Weather Underground

AWEKAS



Weather Underground säähistoriasivu

Päivittäin yhteenveto Tou 19, 2017 Yksiköt:  Englantilaiset    Metriset   Molemmat
« Edellinen Päivä
Seuraava Päivä »
Päivittäin Viikoittain Kuukausittain Vuosittain Mukautettu
  Korkea: Matala: Keskiarvo:
Lämpötila: TemperatureC °F 11.4 °F 15 °F
Kastepiste: DewpointC °F 9.4 °F 11.3 °F
Kosteus: Humidity % 62 % 78 %
Tuulen nopeus: WindSpeedKMH mph 0.0 mph 0 mph
Tuulenpuuska: WindSpeedGustKMH mph - -
Tuuli:- - North
Ilmanpaine: PressurehPa in 1007.7 in -
Sade: 0.0 in    
Historical Graphs
 
 
Taulukkotiedot Tou 19, 2017
Aika Lämpötila Kastepiste Ilmanpaine Tuuli Tuulen nopeus Tuulenpuuska Kosteus Sademäärä (tunneittain)
TemperatureC °F DewpointC °F PressurehPa in Calm     Humidity % HourlyPrecipMM in
00:00 11.4 °F 10.7 °F 1011.7 in Calm     95 % 0.0 in
00:15 11.4 °F 10.7 °F 1011.7 in Calm     95 % 0.0 in
00:30 11.4 °F 10.7 °F 1011.4 in Calm     95 % 0.0 in
00:45 11.5 °F 10.6 °F 1011.1 in Calm     94 % 0.0 in
01:00 11.6 °F 10.6 °F 1010.7 in Calm     94 % 0.0 in
01:15 11.8 °F 10.8 °F 1010.7 in Calm     94 % 0.0 in
01:30 12.1 °F 11.0 °F 1010.4 in Calm     93 % 0.0 in
01:45 12.3 °F 11.2 °F 1010.4 in Calm     93 % 0.0 in
02:00 12.7 °F 11.5 °F 1010.0 in Calm     92 % 0.0 in
02:15 13.0 °F 11.4 °F 1010.0 in Calm     90 % 0.0 in
02:30 13.2 °F 11.4 °F 1009.7 in Calm     89 % 0.0 in
02:45 13.2 °F 11.2 °F 1009.4 in Calm     88 % 0.0 in
03:00 13.1 °F 11.2 °F 1009.4 in Calm     88 % 0.0 in
03:15 13.2 °F 11.2 °F 1009.4 in Calm     88 % 0.0 in
03:30 13.1 °F 11.1 °F 1009.0 in Calm     88 % 0.0 in
03:45 12.9 °F 11.0 °F 1009.0 in Calm     88 % 0.0 in
04:15 12.7 °F 10.8 °F 1008.7 in Calm     88 % 0.0 in
04:30 12.7 °F 10.9 °F 1008.7 in Calm     89 % 0.0 in
04:45 12.6 °F 10.8 °F 1008.4 in Calm     89 % 0.0 in
05:00 12.5 °F 10.7 °F 1008.4 in Calm     89 % 0.0 in
05:15 12.6 °F 10.8 °F 1008.4 in Calm     89 % 0.0 in
05:30 12.8 °F 10.7 °F 1008.4 in Calm     87 % 0.0 in
05:45 12.9 °F 10.8 °F 1008.0 in Calm     87 % 0.0 in
06:00 13.1 °F 10.8 °F 1008.0 in Calm     86 % 0.0 in
06:15 13.1 °F 10.8 °F 1008.0 in Calm     86 % 0.0 in
06:30 13.1 °F 10.8 °F 1008.0 in Calm     86 % 0.0 in
06:45 13.0 °F 10.7 °F 1008.0 in Calm     86 % 0.0 in
07:00 12.9 °F 10.7 °F 1008.0 in Calm     86 % 0.0 in
07:15 12.9 °F 10.7 °F 1008.4 in Calm     86 % 0.0 in
07:30 12.8 °F 10.7 °F 1008.0 in Calm     87 % 0.0 in
07:45 12.7 °F 10.6 °F 1008.0 in Calm     87 % 0.0 in
08:00 12.6 °F 10.5 °F 1008.0 in Calm     87 % 0.0 in
08:15 12.7 °F 10.6 °F 1007.7 in Calm     87 % 0.0 in
08:30 12.8 °F 10.5 °F 1007.7 in Calm     86 % 0.0 in
08:45 13.2 °F 10.7 °F 1007.7 in Calm     85 % 0.0 in
09:00 13.7 °F 10.7 °F 1008.0 in Calm     82 % 0.0 in
09:15 14.0 °F 10.6 °F 1007.7 in Calm     80 % 0.0 in
09:30 14.1 °F 10.7 °F 1007.7 in Calm     80 % 0.0 in
09:45 13.9 °F 10.7 °F 1008.0 in Calm     81 % 0.0 in
10:00 14.4 °F 11.0 °F 1008.0 in Calm     80 % 0.0 in
10:15 14.8 °F 11.0 °F 1008.4 in Calm     78 % 0.0 in
10:30 14.9 °F 10.9 °F 1008.4 in Calm     77 % 0.0 in
10:45 14.6 °F 10.8 °F 1008.7 in Calm     78 % 0.0 in
11:00 14.4 °F 10.7 °F 1008.7 in Calm     78 % 0.0 in
11:15 14.4 °F 10.7 °F 1009.0 in Calm     78 % 0.0 in
11:30 14.6 °F 10.8 °F 1008.7 in Calm     78 % 0.0 in
11:45 14.9 °F 10.9 °F 1009.0 in Calm     77 % 0.0 in
12:00 14.9 °F 11.1 °F 1009.0 in Calm     78 % 0.0 in
12:15 15.5 °F 11.5 °F 1009.0 in Calm     77 % 0.0 in
12:30 15.9 °F 11.5 °F 1009.0 in Calm     75 % 0.0 in
12:45 16.1 °F 11.7 °F 1009.0 in Calm     75 % 0.0 in
13:00 16.4 °F 12.0 °F 1009.4 in Calm     75 % 0.0 in
13:15 17.0 °F 12.3 °F 1009.4 in Calm     74 % 0.0 in
13:30 17.4 °F 12.7 °F 1009.4 in Calm     74 % 0.0 in
13:45 17.2 °F 12.7 °F 1009.7 in Calm     75 % 0.0 in
14:00 17.2 °F 13.1 °F 1009.7 in Calm     77 % 0.0 in
14:15 17.4 °F 13.2 °F 1009.7 in Calm     76 % 0.0 in
14:30 17.5 °F 13.0 °F 1009.7 in Calm     75 % 0.0 in
14:45 17.5 °F 13.0 °F 1010.0 in Calm     75 % 0.0 in
15:00 17.7 °F 13.2 °F 1010.0 in Calm     75 % 0.0 in
15:15 17.9 °F 13.2 °F 1009.7 in Calm     74 % 0.0 in
15:45 18.7 °F 13.1 °F 1010.0 in Calm     70 % 0.0 in
16:00 18.8 °F 13.2 °F 1010.0 in Calm     70 % 0.0 in
16:15 19.1 °F 13.3 °F 1010.0 in Calm     69 % 0.0 in
16:30 19.3 °F 12.8 °F 1010.0 in Calm     66 % 0.0 in
16:45 19.7 °F 12.7 °F 1010.0 in Calm     64 % 0.0 in
17:00 19.7 °F 12.5 °F 1010.0 in Calm     63 % 0.0 in
17:15 19.6 °F 12.3 °F 1010.4 in Calm     63 % 0.0 in
17:30 19.3 °F 12.1 °F 1010.4 in Calm     63 % 0.0 in
17:45 19.3 °F 12.5 °F 1010.4 in Calm     65 % 0.0 in
18:00 19.2 °F 12.2 °F 1010.4 in Calm     64 % 0.0 in
18:15 19.4 °F 12.2 °F 1010.4 in Calm     63 % 0.0 in
18:30 18.7 °F 12.0 °F 1010.7 in Calm     65 % 0.0 in
18:45 18.7 °F 11.2 °F 1010.4 in Calm     62 % 0.0 in
19:00 18.8 °F 11.6 °F 1010.7 in Calm     63 % 0.0 in
19:15 18.7 °F 11.7 °F 1010.7 in Calm     64 % 0.0 in
19:30 18.2 °F 11.7 °F 1010.7 in Calm     66 % 0.0 in
19:45 18.2 °F 11.9 °F 1010.7 in Calm     67 % 0.0 in
20:00 18.1 °F 12.1 °F 1010.7 in Calm     68 % 0.0 in
20:15 17.8 °F 12.1 °F 1011.1 in Calm     69 % 0.0 in
20:30 17.4 °F 11.9 °F 1011.1 in Calm     70 % 0.0 in
20:45 17.1 °F 12.0 °F 1011.1 in Calm     72 % 0.0 in
21:00 16.8 °F 12.0 °F 1011.4 in Calm     73 % 0.0 in
21:15 16.8 °F 11.9 °F 1011.4 in Calm     73 % 0.0 in
21:30 16.5 °F 11.6 °F 1011.4 in Calm     73 % 0.0 in
21:45 16.3 °F 11.4 °F 1011.4 in Calm     73 % 0.0 in
22:00 15.8 °F 11.2 °F 1011.7 in Calm     74 % 0.0 in
22:15 15.2 °F 11.2 °F 1011.7 in Calm     77 % 0.0 in
22:30 14.6 °F 10.6 °F 1011.7 in Calm     77 % 0.0 in
22:45 14.0 °F 10.2 °F 1012.1 in Calm     78 % 0.0 in
23:00 13.4 °F 10.2 °F 1012.4 in Calm     81 % 0.0 in
23:15 12.9 °F 9.9 °F 1012.4 in Calm     82 % 0.0 in
23:30 12.4 °F 9.6 °F 1012.4 in Calm     83 % 0.0 in
23:45 12.2 °F 9.4 °F 1012.4 in Calm     83 % 0.0 in
Esan sääasema
Terveisin Weather Underground - 2.75 mb

Alkuperäinen skripti  Jim McMurry - jmcmurry@mwt.net Sovitettu myös templatelle  Wim van der Kuil - Leuven-Template.eu

Laitteet joita käytämme:

Sääasema
Davis VP2

Sääasemaohjelma
Cumulus

Sääaseman tietokone
Asus EeePC

Palveluntarjoaja
Suncomet

Davis VP2

Cumulus

Asus EeePC

Suncomet